createdAt,value
2023-04-15T00:01:19.912Z,99058.75
2023-04-15T00:03:48.759Z,99055.19
2023-04-15T00:06:17.561Z,99061.56
2023-04-15T00:08:46.449Z,99061.75
2023-04-15T00:11:15.817Z,99053.03
2023-04-15T00:13:46.023Z,99060.28
2023-04-15T00:16:14.598Z,99051.44
2023-04-15T00:18:42.949Z,99049.56
2023-04-15T00:21:11.238Z,99065.22
2023-04-15T00:23:39.576Z,99051.44
2023-04-15T00:26:07.922Z,99057.91
2023-04-15T00:28:36.266Z,99064.28
2023-04-15T00:31:06.684Z,99056.44
2023-04-15T00:33:36.839Z,99058.22
2023-04-15T00:36:08.635Z,99056.91
2023-04-15T00:38:39.682Z,99057.09
2023-04-15T00:41:08.145Z,99055.50
2023-04-15T00:43:36.733Z,99053.91
2023-04-15T00:46:08.433Z,99055.50
2023-04-15T00:48:39.017Z,99053.25
2023-04-15T00:51:07.776Z,99054.03
2023-04-15T00:53:36.641Z,99054.84
2023-04-15T00:56:05.345Z,99060.94
2023-04-15T00:58:34.153Z,99052.22
2023-04-15T01:01:02.926Z,99054.94
2023-04-15T01:03:33.808Z,99048.97
2023-04-15T01:06:04.079Z,99056.19
2023-04-15T01:08:33.035Z,99054.38
2023-04-15T01:11:03.735Z,99059.84
2023-04-15T01:13:35.219Z,99057.88
2023-04-15T01:16:04.308Z,99057.31
2023-04-15T01:18:35.099Z,99060.97
2023-04-15T01:21:03.889Z,99056.63
2023-04-15T01:23:34.488Z,99059.16
2023-04-15T01:26:05.140Z,99059.06
2023-04-15T01:28:33.830Z,99059.06
2023-04-15T01:31:10.109Z,99060.41
2023-04-15T01:33:39.462Z,99062.91
2023-04-15T01:36:10.201Z,99055.03
2023-04-15T01:38:39.438Z,99059.38
2023-04-15T01:41:09.329Z,99057.56
2023-04-15T01:43:38.083Z,99056.63
2023-04-15T01:46:07.301Z,99060.19
2023-04-15T01:48:35.998Z,99060.41
2023-04-15T01:51:06.240Z,99057.00
2023-04-15T01:53:34.827Z,99058.91
2023-04-15T01:56:05.798Z,99058.97
2023-04-15T01:58:35.978Z,99053.66
2023-04-15T02:01:05.248Z,99061.53
2023-04-15T02:03:33.881Z,99049.91
2023-04-15T02:06:02.895Z,99054.22
2023-04-15T02:08:31.531Z,99051.84
2023-04-15T02:11:01.540Z,99055.59
2023-04-15T02:13:30.372Z,99053.19
2023-04-15T02:16:00.550Z,99051.03
2023-04-15T02:18:29.166Z,99049.16
2023-04-15T02:20:58.912Z,99057.66
2023-04-15T02:23:27.455Z,99052.41
2023-04-15T02:25:55.843Z,99050.81
2023-04-15T02:28:24.562Z,99052.06
2023-04-15T02:30:54.451Z,99049.88
2023-04-15T02:33:25.333Z,99050.06
2023-04-15T02:35:54.062Z,99051.03
2023-04-15T02:38:22.654Z,99049.31
2023-04-15T02:40:51.395Z,99057.16
2023-04-15T02:43:19.890Z,99045.00
2023-04-15T02:45:49.750Z,99048.41
2023-04-15T02:48:19.912Z,99051.75
2023-04-15T02:50:50.499Z,99051.84
2023-04-15T02:53:20.138Z,99043.81
2023-04-15T02:55:49.058Z,99049.78
2023-04-15T02:58:17.716Z,99048.03
2023-04-15T03:00:46.802Z,99047.16
2023-04-15T03:03:15.713Z,99046.34
2023-04-15T03:05:44.361Z,99048.03
2023-04-15T03:08:15.281Z,99043.72
2023-04-15T03:10:43.750Z,99046.44
2023-04-15T03:13:12.765Z,99037.72
2023-04-15T03:15:42.409Z,99036.88
2023-04-15T03:18:11.573Z,99049.88
2023-04-15T03:20:42.985Z,99049.69
2023-04-15T03:23:12.166Z,99042.78
2023-04-15T03:25:42.040Z,99049.88
2023-04-15T03:28:10.465Z,99045.78
2023-04-15T03:30:38.897Z,99043.81
2023-04-15T03:33:07.760Z,99046.34
2023-04-15T03:35:36.472Z,99044.44
2023-04-15T03:38:05.596Z,99045.31
2023-04-15T03:40:34.449Z,99042.69
2023-04-15T03:43:04.367Z,99043.44
2023-04-15T03:45:33.075Z,99042.78
2023-04-15T03:48:15.559Z,99044.75
2023-04-15T03:50:46.294Z,99056.13
2023-04-15T03:53:14.720Z,99062.31
2023-04-15T03:55:43.813Z,99060.66
2023-04-15T03:58:13.712Z,99054.53
2023-04-15T04:00:42.875Z,99050.81
2023-04-15T04:03:12.258Z,99063.91
2023-04-15T04:05:41.686Z,99054.38
2023-04-15T04:08:10.314Z,99061.38
2023-04-15T04:10:39.323Z,99064.13
2023-04-15T04:13:08.562Z,99055.50
2023-04-15T04:15:38.654Z,99052.13
2023-04-15T04:18:07.600Z,99049.31
2023-04-15T04:20:36.812Z,99048.41
2023-04-15T04:23:05.748Z,99049.31
2023-04-15T04:25:34.106Z,99044.19
2023-04-15T04:28:02.735Z,99050.06
2023-04-15T04:30:31.443Z,99050.72
2023-04-15T04:33:01.670Z,99052.22
2023-04-15T04:35:30.453Z,99057.38
2023-04-15T04:37:59.035Z,99052.06
2023-04-15T04:40:27.548Z,99056.16
2023-04-15T04:42:56.096Z,99059.53
2023-04-15T04:45:24.766Z,99055.31
2023-04-15T04:47:53.644Z,99062.34
2023-04-15T04:50:24.331Z,99056.28
2023-04-15T04:52:52.759Z,99061.50
2023-04-15T04:55:23.521Z,99062.34
2023-04-15T04:57:52.133Z,99060.41
2023-04-15T05:00:20.725Z,99062.06
2023-04-15T05:02:50.078Z,99069.94
2023-04-15T05:05:19.558Z,99073.31
2023-04-15T05:07:50.743Z,99064.69
2023-04-15T05:10:19.667Z,99054.56
2023-04-15T05:12:48.403Z,99060.84
2023-04-15T05:15:17.558Z,99063.19
2023-04-15T05:17:46.078Z,99061.31
2023-04-15T05:20:15.822Z,99064.69
2023-04-15T05:22:44.559Z,99069.00
2023-04-15T05:25:14.572Z,99063.03
2023-04-15T05:27:42.988Z,99064.69
2023-04-15T05:30:13.452Z,99074.97
2023-04-15T05:32:42.638Z,99069.72
2023-04-15T05:35:11.434Z,99076.88
2023-04-15T05:37:40.159Z,99071.63
2023-04-15T05:40:10.883Z,99073.31
2023-04-15T05:42:41.534Z,99077.72
2023-04-15T05:45:10.882Z,99068.91
2023-04-15T05:47:39.568Z,99072.91
2023-04-15T05:50:08.607Z,99068.53
2023-04-15T05:52:37.437Z,99069.38
2023-04-15T05:55:07.675Z,99069.47
2023-04-15T05:57:36.074Z,99074.81
2023-04-15T06:00:07.589Z,99074.81
2023-04-15T06:02:39.606Z,99076.69
2023-04-15T06:05:10.099Z,99081.00
2023-04-15T06:07:39.727Z,99082.97
2023-04-15T06:10:09.543Z,99093.31
2023-04-15T06:12:38.124Z,99085.19
2023-04-15T06:15:10.723Z,99091.09
2023-04-15T06:17:39.040Z,99083.22
2023-04-15T06:20:08.888Z,99092.13
2023-04-15T06:22:39.485Z,99094.75
2023-04-15T06:25:09.524Z,99100.56
2023-04-15T06:27:38.577Z,99098.69
2023-04-15T06:30:09.975Z,99103.81
2023-04-15T06:32:39.771Z,99095.06
2023-04-15T06:35:08.932Z,99106.28
2023-04-15T06:37:38.565Z,99106.19
2023-04-15T06:40:08.938Z,99105.34
2023-04-15T06:42:40.359Z,99113.31
2023-04-15T06:45:11.595Z,99106.38
2023-04-15T06:47:40.145Z,99102.91
2023-04-15T06:50:09.602Z,99110.41
2023-04-15T06:52:38.320Z,99116.97
2023-04-15T06:55:08.914Z,99121.06
2023-04-15T06:57:38.604Z,99118.28
2023-04-15T07:00:08.432Z,99114.06
2023-04-15T07:02:38.584Z,99112.38
2023-04-15T07:05:08.798Z,99122.31
2023-04-15T07:07:38.599Z,99128.75
2023-04-15T07:10:08.405Z,99125.75
2023-04-15T07:12:37.241Z,99123.88
2023-04-15T07:15:07.004Z,99122.69
2023-04-15T07:17:35.735Z,99128.75
2023-04-15T07:20:06.142Z,99123.31
2023-04-15T07:22:34.900Z,99123.88
2023-04-15T07:25:03.680Z,99127.22
2023-04-15T07:27:32.936Z,99135.03
2023-04-15T07:30:01.832Z,99132.84
2023-04-15T07:32:31.024Z,99127.03
2023-04-15T07:35:00.104Z,99130.84
2023-04-15T07:37:30.840Z,99127.63
2023-04-15T07:39:59.544Z,99125.84
2023-04-15T07:42:29.523Z,99125.97
2023-04-15T07:44:58.590Z,99120.69
2023-04-15T07:47:27.411Z,99117.47
2023-04-15T07:49:56.030Z,99124.84
2023-04-15T07:52:25.365Z,99129.78
2023-04-15T07:54:55.417Z,99126.09
2023-04-15T07:57:24.079Z,99132.13
2023-04-15T07:59:52.852Z,99127.91
2023-04-15T08:02:21.925Z,99127.56
2023-04-15T08:04:50.962Z,99136.59
2023-04-15T08:07:20.063Z,99134.91
2023-04-15T08:09:48.847Z,99137.53
2023-04-15T08:12:19.244Z,99136.88
2023-04-15T08:14:48.699Z,99140.78
2023-04-15T08:17:17.713Z,99142.44
2023-04-15T08:19:48.572Z,99148.94
2023-04-15T08:22:18.916Z,99157.59
2023-04-15T08:24:48.233Z,99154.88
2023-04-15T08:27:19.039Z,99155.50
2023-04-15T08:29:48.344Z,99152.56
2023-04-15T08:32:17.338Z,99154.44
2023-04-15T08:34:46.226Z,99153.81
2023-04-15T08:37:15.314Z,99152.88
2023-04-15T08:39:44.384Z,99160.66
2023-04-15T08:42:17.685Z,99166.00
2023-04-15T08:44:49.255Z,99159.06
2023-04-15T08:47:21.997Z,99171.19
2023-04-15T08:49:54.157Z,99170.41
2023-04-15T08:52:22.900Z,99172.31
2023-04-15T08:54:52.878Z,99180.03
2023-04-15T08:57:22.174Z,99178.34
2023-04-15T08:59:52.630Z,99187.81
2023-04-15T09:02:22.797Z,99200.94
2023-04-15T09:04:51.897Z,99190.34
2023-04-15T09:07:20.877Z,99197.81
2023-04-15T09:09:50.494Z,99194.06
2023-04-15T09:12:19.204Z,99196.69
2023-04-15T09:14:48.591Z,99207.13
2023-04-15T09:17:22.155Z,99205.13
2023-04-15T09:19:51.080Z,99205.88
2023-04-15T09:22:22.960Z,99203.88
2023-04-15T09:24:51.893Z,99203.03
2023-04-15T09:27:22.838Z,99200.13
2023-04-15T09:29:52.551Z,99201.53
2023-04-15T09:32:25.038Z,99200.34
2023-04-15T09:34:54.090Z,99208.25
2023-04-15T09:37:37.222Z,99204.47
2023-04-15T09:40:06.911Z,99210.69
2023-04-15T09:42:36.480Z,99212.47
2023-04-15T09:45:13.464Z,99207.22
2023-04-15T09:47:43.895Z,99221.19
2023-04-15T09:50:12.953Z,99218.38
2023-04-15T09:52:44.606Z,99218.47
2023-04-15T09:55:14.777Z,99223.63
2023-04-15T09:57:44.598Z,99221.63
2023-04-15T10:00:14.280Z,99222.28
2023-04-15T10:02:44.978Z,99230.16
2023-04-15T10:05:16.811Z,99221.22
2023-04-15T10:07:46.489Z,99224.72
2023-04-15T10:10:17.020Z,99228.28
2023-04-15T10:12:46.462Z,99220.59
2023-04-15T10:15:17.959Z,99219.44
2023-04-15T10:17:52.033Z,99223.97
2023-04-15T10:20:22.422Z,99230.16
2023-04-15T10:22:53.363Z,99224.19
2023-04-15T10:25:23.003Z,99223.75
2023-04-15T10:27:53.633Z,99224.66
2023-04-15T10:30:23.534Z,99222.75
2023-04-15T10:32:54.808Z,99226.13
2023-04-15T10:35:25.420Z,99223.69
2023-04-15T10:37:54.230Z,99228.00
2023-04-15T10:40:28.800Z,99229.72
2023-04-15T10:42:57.935Z,99227.72
2023-04-15T10:45:33.586Z,99228.88
2023-04-15T10:48:06.256Z,99228.50
2023-04-15T10:50:35.660Z,99229.94
2023-04-15T10:53:05.257Z,99230.19
2023-04-15T10:55:35.792Z,99233.19
2023-04-15T10:58:05.227Z,99233.28
2023-04-15T11:00:35.929Z,99228.00
2023-04-15T11:03:09.873Z,99221.28
2023-04-15T11:06:00.079Z,99228.97
2023-04-15T11:08:56.503Z,99223.25
2023-04-15T11:11:25.659Z,99226.91
2023-04-15T11:13:58.061Z,99228.47
2023-04-15T11:16:27.527Z,99230.19
2023-04-15T11:18:58.277Z,99232.41
2023-04-15T11:21:28.542Z,99225.75
2023-04-15T11:23:57.487Z,99230.66
2023-04-15T11:26:28.625Z,99231.56
2023-04-15T11:28:58.079Z,99229.91
2023-04-15T11:31:30.109Z,99235.94
2023-04-15T11:34:02.014Z,99220.16
2023-04-15T11:36:32.293Z,99230.56
2023-04-15T11:39:01.629Z,99232.44
2023-04-15T11:41:30.362Z,99238.81
2023-04-15T11:43:59.532Z,99235.94
2023-04-15T11:46:32.234Z,99240.00
2023-04-15T11:49:03.055Z,99234.22
2023-04-15T11:51:34.581Z,99240.13
2023-04-15T11:54:41.495Z,99242.50
2023-04-15T11:57:18.549Z,99237.34
2023-04-15T11:59:47.323Z,99235.06
2023-04-15T12:02:17.037Z,99237.00
2023-04-15T12:04:47.446Z,99242.53
2023-04-15T12:07:17.422Z,99242.88
2023-04-15T12:09:59.836Z,99243.38
2023-04-15T12:12:29.069Z,99250.72
2023-04-15T12:14:59.808Z,99248.53
2023-04-15T12:17:29.110Z,99250.94
2023-04-15T12:19:59.887Z,99246.00
2023-04-15T12:22:29.609Z,99245.41
2023-04-15T12:24:59.064Z,99250.34
2023-04-15T12:27:29.783Z,99251.38
2023-04-15T12:30:06.566Z,99248.34
2023-04-15T12:32:37.985Z,99246.50
2023-04-15T12:35:09.709Z,99248.53
2023-04-15T12:37:39.203Z,99250.22
2023-04-15T12:40:10.778Z,99252.38
2023-04-15T12:42:39.607Z,99245.91
2023-04-15T12:45:09.605Z,99253.84
2023-04-15T12:47:38.660Z,99259.50
2023-04-15T12:50:09.940Z,99257.72
2023-04-15T12:52:38.727Z,99269.53
2023-04-15T12:55:08.212Z,99271.25
2023-04-15T12:57:36.978Z,99271.00
2023-04-15T13:00:08.613Z,99268.38
2023-04-15T13:02:38.274Z,99274.59
2023-04-15T13:05:09.422Z,99272.06
2023-04-15T13:07:38.156Z,99275.91
2023-04-15T13:10:07.740Z,99276.25
2023-04-15T13:12:37.386Z,99276.50
2023-04-15T13:15:06.939Z,99274.34
2023-04-15T13:17:35.749Z,99274.16
2023-04-15T13:20:04.584Z,99269.09
2023-04-15T13:22:34.827Z,99272.47
2023-04-15T13:25:04.370Z,99273.16
2023-04-15T13:27:33.828Z,99269.34
2023-04-15T13:30:03.806Z,99277.59
2023-04-15T13:32:32.410Z,99271.66
2023-04-15T13:35:01.115Z,99276.41
2023-04-15T13:37:30.537Z,99280.47
2023-04-15T13:40:00.856Z,99276.19
2023-04-15T13:42:29.631Z,99271.09
2023-04-15T13:44:58.340Z,99268.31
2023-04-15T13:47:27.155Z,99262.59
2023-04-15T13:49:56.871Z,99262.13
2023-04-15T13:52:25.527Z,99267.19
2023-04-15T13:55:08.381Z,99269.38
2023-04-15T13:57:44.130Z,99272.78
2023-04-15T14:00:15.644Z,99270.81
2023-04-15T14:02:44.183Z,99266.78
2023-04-15T14:05:12.820Z,99271.41
2023-04-15T14:07:41.563Z,99282.41
2023-04-15T14:10:10.301Z,99273.56
2023-04-15T14:12:38.614Z,99276.97
2023-04-15T14:15:09.722Z,99268.41
2023-04-15T14:17:38.860Z,99269.63
2023-04-15T14:20:09.909Z,99277.97
2023-04-15T14:22:38.841Z,99284.31
2023-04-15T14:25:08.420Z,99279.94
2023-04-15T14:27:37.498Z,99289.63
2023-04-15T14:30:07.081Z,99291.56
2023-04-15T14:32:36.846Z,99298.66
2023-04-15T14:35:05.695Z,99298.44
2023-04-15T14:37:34.395Z,99299.84
2023-04-15T14:40:02.961Z,99306.09
2023-04-15T14:42:31.577Z,99304.31
2023-04-15T14:44:59.942Z,99301.56
2023-04-15T14:47:28.553Z,99304.31
2023-04-15T14:49:59.117Z,99304.06
2023-04-15T14:52:27.894Z,99306.56
2023-04-15T14:54:57.020Z,99300.56
2023-04-15T14:57:26.376Z,99303.69
2023-04-15T14:59:56.829Z,99297.38
2023-04-15T15:02:38.536Z,99300.22
2023-04-15T15:05:10.673Z,99301.16
2023-04-15T15:07:40.948Z,99310.59
2023-04-15T15:10:10.630Z,99302.53
2023-04-15T15:12:39.396Z,99308.50
2023-04-15T15:15:25.019Z,99323.09
2023-04-15T15:17:58.152Z,99330.75
2023-04-15T15:20:30.751Z,99332.16
2023-04-15T15:22:59.432Z,99335.91
2023-04-15T15:25:28.254Z,99358.84
2023-04-15T15:27:57.574Z,99392.94
2023-04-15T15:30:26.880Z,99382.19
2023-04-15T15:32:55.655Z,99385.88
2023-04-15T15:35:26.035Z,99395.47
2023-04-15T15:37:57.317Z,99392.97
2023-04-15T15:40:25.958Z,99388.03
2023-04-15T15:42:54.875Z,99396.44
2023-04-15T15:45:23.846Z,99405.66
2023-04-15T15:47:52.980Z,99417.00
2023-04-15T15:50:23.113Z,99432.75
2023-04-15T15:52:51.917Z,99421.78
2023-04-15T15:55:21.989Z,99423.06
2023-04-15T15:57:50.701Z,99431.03
2023-04-15T16:00:20.136Z,99430.88
2023-04-15T16:03:05.774Z,99429.34
2023-04-15T16:05:36.228Z,99437.81
2023-04-15T16:08:05.344Z,99444.72
2023-04-15T16:10:35.885Z,99457.78
2023-04-15T16:13:05.021Z,99450.16
2023-04-15T16:15:34.560Z,99444.16
2023-04-15T16:18:03.541Z,99445.88
2023-04-15T16:20:32.402Z,99451.00
2023-04-15T16:23:02.331Z,99448.72
2023-04-15T16:25:30.927Z,99441.28
2023-04-15T16:28:06.096Z,99445.44
2023-04-15T16:30:41.485Z,99444.75
2023-04-15T16:33:10.876Z,99428.31
2023-04-15T16:35:39.973Z,99419.13
2023-04-15T16:38:08.771Z,99419.34
2023-04-15T16:40:38.977Z,99426.03
2023-04-15T16:43:11.420Z,99413.00
2023-04-15T16:45:40.435Z,99419.44
2023-04-15T16:48:09.273Z,99419.28
2023-04-15T16:50:38.566Z,99416.81
2023-04-15T16:53:07.564Z,99409.38
2023-04-15T16:55:36.555Z,99406.09
2023-04-15T16:58:07.865Z,99407.19
2023-04-15T17:00:38.968Z,99416.31
2023-04-15T17:03:08.078Z,99432.97
2023-04-15T17:05:37.405Z,99431.28
2023-04-15T17:08:06.825Z,99444.06
2023-04-15T17:10:35.982Z,99456.41
2023-04-15T17:13:05.082Z,99467.25
2023-04-15T17:15:36.201Z,99493.09
2023-04-15T17:18:08.882Z,99492.88
2023-04-15T17:20:37.816Z,99494.25
2023-04-15T17:23:06.945Z,99493.69
2023-04-15T17:25:35.861Z,99487.44
2023-04-15T17:28:04.699Z,99484.28
2023-04-15T17:30:36.646Z,99482.94
2023-04-15T17:33:55.274Z,99496.88
2023-04-15T17:35:56.224Z,99489.72
2023-04-15T17:38:27.332Z,99500.00
2023-04-15T17:40:56.521Z,99502.56
2023-04-15T17:43:25.188Z,99506.13
2023-04-15T17:45:54.290Z,99498.66
2023-04-15T17:48:23.338Z,99511.50
2023-04-15T17:50:52.210Z,99522.00
2023-04-15T17:53:22.449Z,99521.16
2023-04-15T17:55:53.436Z,99525.53
2023-04-15T17:58:22.132Z,99530.94
2023-04-15T18:00:50.720Z,99537.09
2023-04-15T18:03:19.323Z,99543.22
2023-04-15T18:05:48.655Z,99543.09
2023-04-15T18:08:17.362Z,99545.81
2023-04-15T18:10:47.304Z,99556.31
2023-04-15T18:13:16.212Z,99556.47
2023-04-15T18:15:47.192Z,99556.38
2023-04-15T18:18:16.100Z,99561.03
2023-04-15T18:20:45.083Z,99573.31
2023-04-15T18:23:14.724Z,99569.78
2023-04-15T18:25:44.971Z,99568.88
2023-04-15T18:28:16.174Z,99586.41
2023-04-15T18:30:45.941Z,99581.97
2023-04-15T18:33:16.060Z,99582.81
2023-04-15T18:35:45.240Z,99581.81
2023-04-15T18:38:14.380Z,99567.94
2023-04-15T18:40:44.228Z,99575.03
2023-04-15T18:43:15.644Z,99588.91
2023-04-15T18:45:45.384Z,99577.63
2023-04-15T18:48:16.216Z,99581.16
2023-04-15T18:50:45.768Z,99583.16
2023-04-15T18:53:16.663Z,99583.34
2023-04-15T18:55:45.464Z,99596.03
2023-04-15T18:58:16.105Z,99597.97
2023-04-15T19:00:45.434Z,99606.75
2023-04-15T19:03:14.900Z,99603.19
2023-04-15T19:05:44.971Z,99611.81
2023-04-15T19:08:14.028Z,99604.75
2023-04-15T19:10:42.903Z,99618.59
2023-04-15T19:13:11.826Z,99614.91
2023-04-15T19:15:42.158Z,99623.56
2023-04-15T19:18:11.330Z,99625.25
2023-04-15T19:20:41.408Z,99624.38
2023-04-15T19:23:10.161Z,99629.56
2023-04-15T19:25:39.211Z,99625.06
2023-04-15T19:28:08.588Z,99613.84
2023-04-15T19:30:37.897Z,99613.06
2023-04-15T19:33:08.194Z,99615.06
2023-04-15T19:35:38.552Z,99618.47
2023-04-15T19:38:08.075Z,99623.00
2023-04-15T19:40:36.817Z,99629.25
2023-04-15T19:43:05.775Z,99625.13
2023-04-15T19:45:35.751Z,99627.06
2023-04-15T19:48:06.318Z,99627.28
2023-04-15T19:50:37.841Z,99629.06
2023-04-15T19:53:06.678Z,99630.06
2023-04-15T19:55:35.551Z,99631.94
2023-04-15T19:58:04.152Z,99626.88
2023-04-15T20:00:33.367Z,99629.63
2023-04-15T20:03:02.823Z,99624.72
2023-04-15T20:05:31.746Z,99631.94
2023-04-15T20:08:02.741Z,99629.50
2023-04-15T20:10:33.038Z,99636.50
2023-04-15T20:13:02.290Z,99630.50
2023-04-15T20:15:30.978Z,99629.81
2023-04-15T20:17:59.976Z,99634.97
2023-04-15T20:20:28.424Z,99637.50
2023-04-15T20:22:57.333Z,99626.41
2023-04-15T20:25:27.356Z,99639.22
2023-04-15T20:27:57.350Z,99631.28
2023-04-15T20:30:29.778Z,99638.22
2023-04-15T20:32:58.599Z,99633.81
2023-04-15T20:35:31.131Z,99636.50
2023-04-15T20:38:00.051Z,99646.84
2023-04-15T20:40:30.122Z,99640.59
2023-04-15T20:42:58.723Z,99639.91
2023-04-15T20:45:27.289Z,99643.53
2023-04-15T20:47:56.671Z,99642.03
2023-04-15T20:50:25.679Z,99645.34
2023-04-15T20:52:54.570Z,99648.13
2023-04-15T20:55:23.141Z,99651.66
2023-04-15T20:57:58.497Z,99648.94
2023-04-15T21:00:27.562Z,99652.63
2023-04-15T21:02:56.232Z,99647.56
2023-04-15T21:05:25.329Z,99652.78
2023-04-15T21:07:54.741Z,99651.22
2023-04-15T21:10:23.521Z,99659.16
2023-04-15T21:12:54.862Z,99654.91
2023-04-15T21:15:26.884Z,99662.00
2023-04-15T21:17:56.116Z,99669.03
2023-04-15T21:20:25.411Z,99659.56
2023-04-15T21:22:54.607Z,99668.47
2023-04-15T21:25:24.472Z,99656.44
2023-04-15T21:27:54.390Z,99672.22
2023-04-15T21:30:23.908Z,99666.31
2023-04-15T21:32:52.744Z,99662.09
2023-04-15T21:35:21.818Z,99662.09
2023-04-15T21:37:50.256Z,99669.16
2023-04-15T21:40:19.591Z,99668.47
2023-04-15T21:42:49.063Z,99672.88
2023-04-15T21:45:19.169Z,99673.03
2023-04-15T21:48:01.238Z,99670.69
2023-04-15T21:50:37.611Z,99683.09
2023-04-15T21:53:09.333Z,99678.91
2023-04-15T21:55:38.014Z,99682.53
2023-04-15T21:58:06.917Z,99690.41
2023-04-15T22:00:37.127Z,99688.94
2023-04-15T22:03:06.702Z,99688.88
2023-04-15T22:05:35.689Z,99695.09
2023-04-15T22:08:05.548Z,99701.31
2023-04-15T22:10:34.182Z,99704.97
2023-04-15T22:13:03.217Z,99699.84
2023-04-15T22:15:31.937Z,99700.78
2023-04-15T22:18:02.084Z,99698.34
2023-04-15T22:20:30.661Z,99699.31
2023-04-15T22:22:59.228Z,99699.47
2023-04-15T22:25:28.234Z,99700.28
2023-04-15T22:27:56.876Z,99696.91
2023-04-15T22:30:25.830Z,99706.63
2023-04-15T22:32:54.504Z,99710.25
2023-04-15T22:35:25.389Z,99712.06
2023-04-15T22:37:54.558Z,99714.03
2023-04-15T22:40:23.435Z,99713.38
2023-04-15T22:42:51.965Z,99723.03
2023-04-15T22:45:21.644Z,99715.38
2023-04-15T22:47:50.601Z,99720.66
2023-04-15T22:50:19.571Z,99721.69
2023-04-15T22:52:49.667Z,99717.38
2023-04-15T22:55:18.724Z,99718.31
2023-04-15T22:57:48.032Z,99717.50
2023-04-15T23:00:16.674Z,99723.13
2023-04-15T23:02:46.009Z,99718.09
2023-04-15T23:05:14.758Z,99721.53
2023-04-15T23:07:43.620Z,99725.13
2023-04-15T23:10:14.283Z,99727.63
2023-04-15T23:12:42.911Z,99728.34
2023-04-15T23:15:12.320Z,99729.97
2023-04-15T23:17:41.154Z,99735.19
2023-04-15T23:20:11.439Z,99727.41
2023-04-15T23:22:42.181Z,99736.22
2023-04-15T23:25:12.846Z,99729.38
2023-04-15T23:27:42.828Z,99731.97
2023-04-15T23:30:11.672Z,99724.97
2023-04-15T23:32:40.864Z,99729.22
2023-04-15T23:35:10.719Z,99732.81
2023-04-15T23:37:39.543Z,99732.84
2023-04-15T23:40:09.623Z,99732.84
2023-04-15T23:42:38.138Z,99739.00
2023-04-15T23:45:10.115Z,99734.81
2023-04-15T23:47:38.853Z,99736.53
2023-04-15T23:50:09.219Z,99728.69
2023-04-15T23:52:38.065Z,99730.44
2023-04-15T23:55:07.605Z,99733.22
2023-04-15T23:57:36.671Z,99729.72
